Time;durP1;ratioP1;P1;durP2;ratioP2;P2;SDS_P1;SDS_P2;PMS_P1;PMS_P2;Temp;Humidity;BMP_temperature;BMP_pressure;BME280_temperature;BME280_humidity;BME280_pressure;Samples;Min_cycle;Max_cycle;Signal;HPM_P1;HPM_P2
2023/06/06 00:00:29;;;;;;;3.55;1.90;;;;;;;19.65;35.12;100765.63;5052190;28;20229;-59
2023/06/06 00:02:58;;;;;;;3.80;2.20;;;;;;;19.62;35.24;100764.84;5050070;28;20205;-59
2023/06/06 00:05:29;;;;;;;3.97;2.65;;;;;;;19.57;35.26;100759.78;5056442;28;20198;-58
2023/06/06 00:07:57;;;;;;;5.20;2.25;;;;;;;19.59;35.55;100767.56;5050913;28;20252;-59
2023/06/06 00:10:27;;;;;;;3.25;2.00;;;;;;;19.56;35.48;100763.34;5044291;28;20207;-58
2023/06/06 00:12:55;;;;;;;5.70;2.40;;;;;;;19.52;35.67;100761.75;5058455;28;20213;-60
2023/06/06 00:15:24;;;;;;;5.10;2.17;;;;;;;19.48;35.70;100762.78;5055890;28;20915;-59
2023/06/06 00:17:55;;;;;;;4.05;2.05;;;;;;;19.42;35.90;100757.75;5059002;28;20573;-60
2023/06/06 00:20:24;;;;;;;4.07;2.90;;;;;;;19.33;36.06;100758.06;5052189;28;20541;-58
2023/06/06 00:22:53;;;;;;;5.00;2.58;;;;;;;19.20;36.34;100763.75;5048288;28;20293;-58
2023/06/06 00:25:21;;;;;;;7.95;3.00;;;;;;;19.04;36.54;100747.78;5049338;28;20673;-59
2023/06/06 00:27:51;;;;;;;4.35;3.10;;;;;;;19.01;36.93;100762.72;5051062;28;20281;-59
2023/06/06 00:30:18;;;;;;;5.55;3.25;;;;;;;18.90;37.03;100759.63;5048338;28;20213;-60
2023/06/06 00:32:46;;;;;;;8.55;3.17;;;;;;;18.80;37.22;100762.53;5055707;28;20251;-59
2023/06/06 00:35:15;;;;;;;6.47;3.05;;;;;;;18.76;37.53;100760.94;5048172;28;20327;-60
2023/06/06 00:37:43;;;;;;;4.22;3.15;;;;;;;18.71;37.77;100759.41;5047660;28;20202;-58
2023/06/06 00:40:14;;;;;;;7.53;3.08;;;;;;;18.67;37.70;100758.63;5049173;28;20686;-59
2023/06/06 00:42:43;;;;;;;5.68;2.63;;;;;;;18.64;37.98;100757.88;5049609;28;20205;-60
2023/06/06 00:45:12;;;;;;;5.30;3.35;;;;;;;18.59;38.07;100756.25;5052439;28;20597;-58
2023/06/06 00:47:40;;;;;;;6.82;3.38;;;;;;;18.61;38.14;100761.41;5051549;28;20613;-59
2023/06/06 00:50:12;;;;;;;4.50;2.70;;;;;;;18.60;38.32;100759.72;5048895;28;20210;-59
2023/06/06 00:52:43;;;;;;;5.78;2.72;;;;;;;18.59;38.67;100760.59;5051500;28;20205;-58
2023/06/06 00:55:12;;;;;;;5.70;3.05;;;;;;;18.56;38.69;100758.97;5042685;28;20206;-59
2023/06/06 00:57:43;;;;;;;3.65;2.45;;;;;;;18.54;38.78;100758.16;5046134;28;20207;-59
2023/06/06 01:00:15;;;;;;;4.65;2.80;;;;;;;18.51;39.07;100762.63;5057551;28;20561;-60
2023/06/06 01:02:47;;;;;;;4.85;2.80;;;;;;;18.49;39.08;100754.00;5051148;28;20240;-58
2023/06/06 01:05:18;;;;;;;6.05;2.53;;;;;;;18.49;39.14;100754.00;5047904;28;20244;-60
2023/06/06 01:07:49;;;;;;;4.88;2.88;;;;;;;18.48;39.17;100754.88;5050400;28;20213;-59
2023/06/06 01:10:17;;;;;;;8.77;3.42;;;;;;;18.49;39.03;100752.25;5052563;28;20209;-58
2023/06/06 01:12:52;;;;;;;5.03;2.80;;;;;;;18.51;38.93;100746.97;5054386;28;20236;-59
2023/06/06 01:15:25;;;;;;;5.65;2.63;;;;;;;18.56;38.77;100758.13;5048117;28;20201;-63
2023/06/06 01:17:54;;;;;;;3.95;2.70;;;;;;;18.59;38.84;100753.66;5050950;28;20233;-63
2023/06/06 01:20:25;;;;;;;5.35;2.55;;;;;;;18.61;38.99;100758.81;5058382;28;20198;-64
2023/06/06 01:22:56;;;;;;;4.30;2.92;;;;;;;18.61;39.01;100753.59;5051090;28;20305;-62
2023/06/06 01:25:25;;;;;;;5.10;2.80;;;;;;;18.59;39.09;100760.59;5046209;28;20638;-63
2023/06/06 01:27:55;;;;;;;4.30;2.30;;;;;;;18.55;39.11;100759.84;5049984;28;20208;-63
2023/06/06 01:30:27;;;;;;;4.82;2.78;;;;;;;18.51;39.69;100766.06;5048729;28;20216;-62
2023/06/06 01:33:07;;;;;;;6.93;3.30;;;;;;;18.48;39.66;100757.50;5047009;28;20213;-63
2023/06/06 01:35:47;;;;;;;3.10;2.55;;;;;;;18.39;39.34;100763.03;5048302;28;20536;-63
2023/06/06 01:38:21;;;;;;;8.02;3.55;;;;;;;18.26;38.67;100765.16;5053780;28;20628;-63
2023/06/06 01:40:52;;;;;;;3.72;3.03;;;;;;;18.15;38.49;100775.94;5060533;28;20197;-63
2023/06/06 01:43:23;;;;;;;7.32;3.53;;;;;;;18.05;39.16;100770.16;5050497;28;20561;-62
2023/06/06 01:45:52;;;;;;;7.45;3.83;;;;;;;17.95;40.86;100762.66;5044862;28;20576;-61
2023/06/06 01:48:21;;;;;;;7.10;4.13;;;;;;;17.87;42.26;100775.94;5050175;28;20264;-61
2023/06/06 01:50:50;;;;;;;6.10;4.00;;;;;;;17.80;43.03;100775.25;5040432;28;20206;-65
2023/06/06 01:53:20;;;;;;;5.30;4.00;;;;;;;17.73;43.62;100773.69;5049940;28;20557;-61
2023/06/06 01:55:48;;;;;;;8.95;4.10;;;;;;;17.67;43.55;100773.88;5050594;28;20580;-61
2023/06/06 01:58:17;;;;;;;6.47;4.13;;;;;;;17.58;43.62;100782.81;5050582;28;20202;-61
2023/06/06 02:00:45;;;;;;;9.60;4.55;;;;;;;17.46;44.17;100774.50;5057505;28;20198;-62
2023/06/06 02:03:14;;;;;;;6.05;4.30;;;;;;;17.34;44.42;100775.69;5049519;28;20645;-61
2023/06/06 02:05:42;;;;;;;7.45;4.10;;;;;;;17.21;44.80;100780.38;5047267;28;20206;-63
2023/06/06 02:08:11;;;;;;;7.22;3.92;;;;;;;17.10;44.17;100779.81;5053765;28;20205;-61
2023/06/06 02:10:40;;;;;;;6.47;4.25;;;;;;;16.97;44.08;100778.44;5054187;28;20629;-62
2023/06/06 02:13:09;;;;;;;5.80;3.70;;;;;;;16.87;44.08;100773.47;5058921;28;20201;-63
2023/06/06 02:15:36;;;;;;;9.35;3.92;;;;;;;16.81;43.90;100775.38;5052312;28;20201;-62
2023/06/06 02:18:05;;;;;;;8.10;3.80;;;;;;;16.77;43.68;100779.81;5058405;28;20218;-61
2023/06/06 02:20:33;;;;;;;6.38;3.65;;;;;;;16.73;44.24;100778.16;5047992;28;20313;-63
2023/06/06 02:23:01;;;;;;;7.22;4.13;;;;;;;16.73;44.54;100778.16;5059253;28;20252;-63
2023/06/06 02:25:33;;;;;;;9.15;4.35;;;;;;;16.72;44.61;100776.44;5051877;28;20565;-63
2023/06/06 02:28:03;;;;;;;6.40;3.75;;;;;;;16.69;44.62;100773.91;5054217;28;20198;-61
2023/06/06 02:30:33;;;;;;;8.85;4.43;;;;;;;16.70;44.99;100769.56;5057553;28;20198;-63
2023/06/06 02:33:01;;;;;;;6.10;3.95;;;;;;;16.67;44.94;100773.09;5065266;28;20212;-62
2023/06/06 02:35:29;;;;;;;7.72;4.20;;;;;;;16.63;44.61;100774.06;5050362;28;20206;-60
2023/06/06 02:37:57;;;;;;;5.97;4.13;;;;;;;16.58;44.69;100771.56;5049947;28;20228;-63
2023/06/06 02:40:25;;;;;;;7.65;4.22;;;;;;;16.54;45.23;100769.94;5063491;28;20608;-62
2023/06/06 02:42:54;;;;;;;5.82;4.15;;;;;;;16.47;45.42;100773.59;5053532;28;20237;-62
2023/06/06 02:45:23;;;;;;;10.70;4.65;;;;;;;16.41;45.29;100771.97;5054279;28;20271;-60
2023/06/06 02:47:51;;;;;;;9.25;4.05;;;;;;;16.35;45.19;100776.50;5054605;28;20198;-62
2023/06/06 02:50:20;;;;;;;8.45;3.65;;;;;;;16.30;44.91;100786.97;5052405;28;20202;-63
2023/06/06 02:52:48;;;;;;;11.00;3.53;;;;;;;16.25;44.13;100780.19;5057834;28;20563;-63
2023/06/06 02:55:16;;;;;;;5.97;3.35;;;;;;;16.23;44.05;100776.75;5047455;28;20233;-62
2023/06/06 02:57:44;;;;;;;5.53;3.50;;;;;;;16.26;43.93;100784.50;5053509;28;20740;-63
2023/06/06 03:00:14;;;;;;;8.48;3.95;;;;;;;16.29;44.37;100787.88;5054716;28;20333;-62
2023/06/06 03:02:43;;;;;;;6.85;3.70;;;;;;;16.29;43.64;100780.06;5058956;28;20206;-63
2023/06/06 03:05:13;;;;;;;4.70;3.28;;;;;;;16.29;43.45;100779.22;5056937;28;20256;-63
2023/06/06 03:07:41;;;;;;;4.82;3.30;;;;;;;16.29;43.35;100785.28;5046862;28;20206;-64
2023/06/06 03:10:10;;;;;;;7.22;3.50;;;;;;;16.27;42.68;100776.63;5051511;28;20658;-63
2023/06/06 03:12:38;;;;;;;4.20;3.17;;;;;;;16.24;42.57;100781.94;5052535;28;20615;-64
2023/06/06 03:15:09;;;;;;;5.78;2.88;;;;;;;16.25;42.09;100785.38;5047719;28;20288;-62
2023/06/06 03:17:37;;;;;;;5.70;3.08;;;;;;;16.25;42.07;100775.00;5057726;28;20271;-63
2023/06/06 03:20:07;;;;;;;4.68;2.97;;;;;;;16.27;41.57;100783.59;5057545;28;20209;-63
2023/06/06 03:22:36;;;;;;;5.13;3.25;;;;;;;16.26;41.26;100782.75;5052030;28;20289;-63
2023/06/06 03:25:04;;;;;;;5.00;2.70;;;;;;;16.30;40.93;100775.72;5054113;28;20210;-62
2023/06/06 03:27:32;;;;;;;4.10;3.08;;;;;;;16.34;40.84;100774.75;5048339;28;20198;-62
2023/06/06 03:30:02;;;;;;;4.63;2.75;;;;;;;16.37;40.53;100777.28;5046844;28;20325;-65
2023/06/06 03:32:30;;;;;;;3.70;2.30;;;;;;;16.39;40.41;100767.72;5052968;28;20197;-61
2023/06/06 03:34:58;;;;;;;4.22;2.58;;;;;;;16.43;40.06;100775.41;5061790;28;20208;-63
2023/06/06 03:37:28;;;;;;;4.88;2.85;;;;;;;16.45;40.23;100770.16;5043925;28;20364;-63
2023/06/06 03:39:55;;;;;;;3.78;2.97;;;;;;;16.47;40.13;100781.38;5052686;28;20237;-62
2023/06/06 03:42:23;;;;;;;6.75;2.90;;;;;;;16.44;39.89;100765.84;5051435;28;20209;-62
2023/06/06 03:44:51;;;;;;;6.82;3.28;;;;;;;16.47;40.13;100770.97;5055369;28;20201;-63
2023/06/06 03:47:19;;;;;;;4.32;2.97;;;;;;;16.49;40.23;100776.13;5057415;28;20280;-63
2023/06/06 03:49:47;;;;;;;7.38;3.22;;;;;;;16.53;40.44;100764.75;5054161;28;20642;-62
2023/06/06 03:52:16;;;;;;;4.13;2.70;;;;;;;16.50;40.23;100765.72;5054125;28;20217;-62
2023/06/06 03:54:45;;;;;;;3.22;2.63;;;;;;;16.50;40.19;100770.91;5048900;28;20229;-62
2023/06/06 03:57:13;;;;;;;5.90;2.90;;;;;;;16.53;40.63;100773.44;5056543;28;20577;-62
2023/06/06 03:59:42;;;;;;;3.65;2.50;;;;;;;16.58;40.46;100768.13;5054912;28;20209;-62
2023/06/06 04:02:09;;;;;;;4.55;2.47;;;;;;;16.60;40.51;100771.53;5050317;28;20205;-61
2023/06/06 04:04:40;;;;;;;6.10;2.33;;;;;;;16.63;40.54;100771.44;5057618;28;20252;-62
2023/06/06 04:07:09;;;;;;;5.45;2.78;;;;;;;16.69;40.34;100766.09;5051152;28;20205;-62
2023/06/06 04:09:39;;;;;;;4.65;2.80;;;;;;;16.74;40.46;100764.25;5051222;28;20260;-63
2023/06/06 04:12:10;;;;;;;7.03;2.80;;;;;;;16.80;40.38;100764.13;5042094;28;20297;-63
2023/06/06 04:14:38;;;;;;;4.32;2.75;;;;;;;16.87;40.04;100768.28;5051899;28;20289;-63
2023/06/06 04:17:07;;;;;;;5.80;2.67;;;;;;;16.92;39.95;100762.94;5050371;28;20630;-62
2023/06/06 04:19:36;;;;;;;4.10;2.60;;;;;;;16.96;39.59;100759.34;5047230;28;20233;-62
2023/06/06 04:22:05;;;;;;;5.55;2.80;;;;;;;17.01;39.68;100756.63;5053280;28;20201;-62
2023/06/06 04:24:33;;;;;;;4.32;2.50;;;;;;;17.12;39.52;100760.66;5046851;28;20208;-63
2023/06/06 04:27:03;;;;;;;4.28;1.92;;;;;;;17.20;38.84;100754.41;5051072;28;20202;-62
2023/06/06 04:29:33;;;;;;;4.45;2.08;;;;;;;17.30;39.07;100756.69;5050245;28;20230;-63
2023/06/06 04:32:02;;;;;;;4.50;2.28;;;;;;;17.39;38.71;100748.63;5058586;28;20217;-61
2023/06/06 04:34:31;;;;;;;3.88;2.03;;;;;;;17.50;38.15;100756.13;5052034;28;20206;-64
2023/06/06 04:37:03;;;;;;;4.00;2.42;;;;;;;17.63;38.03;100759.22;5053059;28;20241;-63
2023/06/06 04:39:32;;;;;;;5.32;2.58;;;;;;;17.75;37.92;100758.91;5052372;28;20217;-63
2023/06/06 04:42:04;;;;;;;3.75;2.17;;;;;;;17.91;37.51;100758.44;5056149;28;20201;-62
2023/06/06 04:44:41;;;;;;;4.10;2.35;;;;;;;18.03;37.25;100761.53;5053154;28;20620;-64
2023/06/06 04:47:10;;;;;;;5.10;2.42;;;;;;;18.17;37.15;100755.03;5055295;28;20213;-62
2023/06/06 04:49:40;;;;;;;3.38;2.10;;;;;;;18.29;36.55;100752.03;5061750;28;20201;-63
2023/06/06 04:52:12;;;;;;;7.60;2.28;;;;;;;18.44;36.64;100758.50;5059341;28;20549;-63
2023/06/06 04:54:41;;;;;;;4.13;1.90;;;;;;;18.55;36.57;100759.84;5051718;28;20698;-62
2023/06/06 04:57:15;;;;;;;6.07;2.15;;;;;;;18.68;36.21;100765.53;5048720;28;20220;-66
2023/06/06 04:59:50;;;;;;;3.72;2.00;;;;;;;18.80;35.99;100759.91;5051851;28;20206;-64
2023/06/06 05:02:20;;;;;;;3.10;2.28;;;;;;;18.97;35.86;100758.50;5052798;28;20220;-64
2023/06/06 05:04:49;;;;;;;3.78;2.30;;;;;;;19.14;35.29;100757.88;5058849;28;20210;-64
2023/06/06 05:07:17;;;;;;;2.35;1.88;;;;;;;19.32;34.83;100754.63;5048112;28;20206;-65
2023/06/06 05:09:45;;;;;;;2.47;2.00;;;;;;;19.53;34.63;100758.22;5048868;28;20576;-64
2023/06/06 05:12:13;;;;;;;4.72;2.28;;;;;;;19.79;33.75;100757.25;5050676;28;20216;-64
2023/06/06 05:14:41;;;;;;;3.90;2.28;;;;;;;20.10;34.35;100749.06;5048686;28;20207;-66
2023/06/06 05:17:11;;;;;;;3.80;1.92;;;;;;;20.40;33.92;100753.97;5045571;28;20218;-65
2023/06/06 05:19:38;;;;;;;3.75;2.33;;;;;;;20.73;33.96;100750.00;5043626;28;20214;-65
2023/06/06 05:22:06;;;;;;;6.43;2.33;;;;;;;21.01;33.06;100746.16;5045763;28;20221;-65
2023/06/06 05:24:35;;;;;;;2.75;1.92;;;;;;;21.24;32.10;100742.53;5050373;28;20225;-65
2023/06/06 05:27:03;;;;;;;6.20;2.03;;;;;;;21.51;31.81;100752.75;5047128;28;20671;-63
2023/06/06 05:29:31;;;;;;;4.47;1.95;;;;;;;21.71;31.49;100748.25;5061228;28;20233;-65
2023/06/06 05:31:59;;;;;;;6.10;2.08;;;;;;;21.96;31.02;100741.88;5050994;28;20210;-66
2023/06/06 05:34:28;;;;;;;4.22;2.00;;;;;;;22.17;30.91;100746.13;5050366;28;20206;-66
2023/06/06 05:36:56;;;;;;;4.05;2.20;;;;;;;22.34;30.97;100747.91;5047696;28;20217;-66
2023/06/06 05:39:25;;;;;;;10.90;2.90;;;;;;;22.51;30.50;100736.59;5050965;28;20220;-67
2023/06/06 05:41:54;;;;;;;5.72;2.88;;;;;;;22.67;30.12;100753.25;5054850;28;20206;-61
2023/06/06 05:44:23;;;;;;;4.95;2.50;;;;;;;22.83;29.83;100750.72;5051509;28;20217;-63
2023/06/06 05:46:55;;;;;;;5.55;2.20;;;;;;;23.00;29.46;100746.38;5051603;28;20251;-62
2023/06/06 05:49:24;;;;;;;3.53;1.92;;;;;;;23.19;29.23;100746.28;5045264;28;20203;-60
2023/06/06 05:51:54;;;;;;;4.15;2.15;;;;;;;23.37;28.56;100745.28;5052635;28;20198;-61
2023/06/06 05:54:22;;;;;;;3.53;2.05;;;;;;;23.52;28.54;100747.09;5056466;28;20222;-66
2023/06/06 05:56:50;;;;;;;2.75;1.95;;;;;;;23.71;28.62;100746.97;5041722;28;20214;-60
2023/06/06 05:59:18;;;;;;;4.63;2.28;;;;;;;23.87;28.19;100744.34;5047077;28;20218;-62
2023/06/06 06:01:49;;;;;;;3.05;2.25;;;;;;;24.01;27.82;100744.44;5061956;28;20656;-60
2023/06/06 06:04:18;;;;;;;5.78;2.40;;;;;;;24.16;27.81;100747.13;5051590;28;20575;-59
2023/06/06 06:06:47;;;;;;;5.45;2.30;;;;;;;24.33;27.52;100747.84;5055993;28;20210;-59
2023/06/06 06:09:17;;;;;;;3.40;1.92;;;;;;;24.54;27.54;100744.94;5057445;28;20642;-64
2023/06/06 06:11:45;;;;;;;2.80;2.00;;;;;;;24.76;27.32;100739.25;5056281;28;20202;-64
2023/06/06 06:14:13;;;;;;;4.03;1.98;;;;;;;24.99;27.32;100740.50;5055211;28;20305;-65
2023/06/06 06:16:41;;;;;;;7.30;2.83;;;;;;;25.26;26.43;100740.66;5049869;28;20540;-65
2023/06/06 06:19:09;;;;;;;3.20;2.05;;;;;;;25.53;26.19;100743.34;5056643;28;20561;-65
2023/06/06 06:21:37;;;;;;;7.57;2.60;;;;;;;25.70;26.35;100736.97;5055507;28;20209;-65
2023/06/06 06:24:06;;;;;;;5.95;2.20;;;;;;;25.82;25.96;100740.69;5069054;28;20276;-66
2023/06/06 06:26:36;;;;;;;8.77;2.30;;;;;;;25.93;25.74;100744.34;5058342;28;20224;-65
2023/06/06 06:29:04;;;;;;;3.95;2.15;;;;;;;25.98;25.21;100747.50;5054024;28;20237;-67
2023/06/06 06:31:32;;;;;;;3.00;2.20;;;;;;;26.00;25.18;100744.78;5053943;28;20198;-65
2023/06/06 06:34:00;;;;;;;3.22;2.22;;;;;;;25.89;24.72;100748.13;5048087;28;20210;-65
2023/06/06 06:36:28;;;;;;;3.42;1.80;;;;;;;25.92;24.87;100742.66;5059973;28;20232;-65
2023/06/06 06:38:56;;;;;;;9.80;2.10;;;;;;;26.06;24.60;100743.53;5060764;28;20683;-64
2023/06/06 06:41:25;;;;;;;2.03;1.65;;;;;;;26.32;24.66;100747.94;5054636;28;20221;-65
2023/06/06 06:43:54;;;;;;;4.22;1.83;;;;;;;26.54;24.22;100746.53;5058350;28;20201;-62
2023/06/06 06:46:25;;;;;;;4.25;2.03;;;;;;;26.75;24.40;100755.69;5055129;28;20206;-60
2023/06/06 06:48:53;;;;;;;9.02;2.28;;;;;;;26.94;24.29;100745.53;5053032;28;20643;-60
2023/06/06 06:51:22;;;;;;;6.28;1.90;;;;;;;27.07;24.54;100747.34;5046029;28;20221;-61
2023/06/06 06:53:51;;;;;;;7.07;1.85;;;;;;;27.08;23.59;100743.72;5054872;28;20301;-62
2023/06/06 06:56:21;;;;;;;4.50;1.90;;;;;;;27.02;23.28;100742.34;5057291;28;20199;-61
2023/06/06 06:58:49;;;;;;;2.70;1.65;;;;;;;27.08;23.60;100743.72;5051930;28;20609;-60
2023/06/06 07:01:18;;;;;;;4.72;1.95;;;;;;;27.23;23.76;100740.03;5049345;28;20210;-61
2023/06/06 07:03:48;;;;;;;3.40;1.90;;;;;;;27.41;23.13;100741.41;5054538;28;20202;-60
2023/06/06 07:06:18;;;;;;;3.33;1.67;;;;;;;27.63;23.00;100745.16;5056707;28;20209;-64
2023/06/06 07:08:49;;;;;;;10.75;1.90;;;;;;;27.90;22.38;100737.03;5048764;28;20233;-61
2023/06/06 07:11:17;;;;;;;3.50;1.73;;;;;;;27.89;21.48;100738.84;5051132;28;20198;-62
2023/06/06 07:13:45;;;;;;;2.63;1.80;;;;;;;27.80;21.81;100734.22;5048434;28;20206;-62
2023/06/06 07:16:14;;;;;;;2.38;1.25;;;;;;;27.82;21.52;100737.59;5052763;28;20206;-61
2023/06/06 07:18:45;;;;;;;5.68;1.95;;;;;;;27.86;21.69;100733.78;5042741;28;20610;-60
2023/06/06 07:21:13;;;;;;;2.33;1.63;;;;;;;28.07;21.39;100733.16;5052468;28;20660;-63
2023/06/06 07:23:41;;;;;;;1.75;1.63;;;;;;;28.23;20.99;100728.41;5054137;28;20565;-60
2023/06/06 07:26:10;;;;;;;6.72;1.67;;;;;;;28.25;20.89;100731.78;5044861;28;20206;-62
2023/06/06 07:28:38;;;;;;;2.92;1.67;;;;;;;28.30;20.94;100734.94;5027932;28;20911;-60
2023/06/06 07:31:10;;;;;;;4.93;1.60;;;;;;;28.14;21.12;100734.41;5033924;28;20206;-62
2023/06/06 07:33:38;;;;;;;1.48;1.30;;;;;;;27.88;20.85;100728.38;5035692;28;20450;-60
2023/06/06 07:36:09;;;;;;;3.17;1.42;;;;;;;27.62;21.16;100724.94;5043634;28;20305;-63
2023/06/06 07:38:37;;;;;;;4.80;2.05;;;;;;;27.34;22.04;100726.91;5038671;28;20201;-61
2023/06/06 07:41:05;;;;;;;2.45;1.30;;;;;;;27.08;21.87;100734.00;5039185;28;20305;-62
2023/06/06 07:43:33;;;;;;;5.20;1.85;;;;;;;26.67;22.77;100739.50;5037875;28;20212;-63
2023/06/06 07:46:01;;;;;;;3.42;1.17;;;;;;;26.27;23.65;100732.41;5039236;28;20312;-61
2023/06/06 07:48:29;;;;;;;1.67;1.25;;;;;;;25.93;24.31;100725.00;5036504;28;20205;-60
2023/06/06 07:50:57;;;;;;;3.63;1.20;;;;;;;25.57;24.41;100731.66;5048715;28;20641;-62
2023/06/06 07:53:27;;;;;;;2.40;1.63;;;;;;;25.33;24.64;100727.91;5055373;28;20566;-60
2023/06/06 07:55:55;;;;;;;4.32;1.67;;;;;;;25.13;25.05;100723.88;5047996;28;20206;-61
2023/06/06 07:58:26;;;;;;;1.80;1.40;;;;;;;25.00;25.19;100721.97;5062863;28;20221;-61
2023/06/06 08:00:58;;;;;;;3.15;1.70;;;;;;;24.84;25.13;100715.91;5058862;28;20227;-61
2023/06/06 08:03:26;;;;;;;3.92;1.55;;;;;;;24.70;25.12;100726.44;5064197;28;20194;-61
2023/06/06 08:05:54;;;;;;;3.42;1.45;;;;;;;24.59;25.28;100721.78;5059498;28;20275;-61
2023/06/06 08:08:26;;;;;;;1.67;1.35;;;;;;;24.51;25.59;100716.13;5057351;28;20213;-62
2023/06/06 08:10:55;;;;;;;3.15;1.38;;;;;;;24.47;25.71;100712.81;5058635;28;20647;-61
2023/06/06 08:13:24;;;;;;;7.35;1.85;;;;;;;24.46;25.90;100723.47;5055378;28;20202;-61
2023/06/06 08:15:52;;;;;;;2.60;1.65;;;;;;;24.42;25.73;100714.91;5051720;28;20220;-62
2023/06/06 08:18:20;;;;;;;4.00;1.35;;;;;;;24.45;26.58;100712.09;5051995;28;20203;-61
2023/06/06 08:20:48;;;;;;;2.45;1.70;;;;;;;24.51;26.19;100716.13;5060380;28;20557;-62
2023/06/06 08:23:16;;;;;;;1.98;1.33;;;;;;;24.56;25.63;100707.03;5055775;28;20204;-61
2023/06/06 08:25:55;;;;;;;3.75;1.23;;;;;;;24.52;25.38;100709.91;5166921;27;20575;-61
2023/06/06 08:28:23;;;;;;;3.85;1.50;;;;;;;24.54;25.57;100722.06;5146251;27;20207;-61
2023/06/06 08:30:52;;;;;;;1.50;1.13;;;;;;;24.57;25.57;100703.44;5135354;27;20198;-61
2023/06/06 08:33:21;;;;;;;2.17;1.38;;;;;;;24.65;26.05;100699.50;5147809;27;20205;-62
2023/06/06 08:35:49;;;;;;;2.55;1.13;;;;;;;24.68;25.05;100700.19;5148341;27;20637;-61
2023/06/06 08:38:17;;;;;;;3.47;1.50;;;;;;;24.69;25.25;100707.13;5144955;27;20210;-61
2023/06/06 08:40:45;;;;;;;2.25;1.20;;;;;;;24.69;25.07;100706.28;5144209;27;20213;-61
2023/06/06 08:43:16;;;;;;;5.32;1.30;;;;;;;24.74;25.18;100693.69;5146252;27;20203;-61
2023/06/06 08:45:51;;;;;;;1.48;1.15;;;;;;;24.81;24.90;100700.28;5146456;27;20225;-61
2023/06/06 08:48:20;;;;;;;1.30;1.13;;;;;;;24.87;25.00;100691.16;5145408;27;20623;-62
2023/06/06 08:50:50;;;;;;;2.45;1.15;;;;;;;24.89;24.74;100682.22;5142377;27;20216;-61
2023/06/06 08:53:18;;;;;;;4.55;1.13;;;;;;;24.93;24.33;100689.00;5144426;27;20195;-60
2023/06/06 08:55:46;;;;;;;1.73;1.23;;;;;;;24.86;24.40;100686.84;5144576;27;20286;-60
2023/06/06 08:58:16;;;;;;;1.75;1.35;;;;;;;24.88;25.03;100685.78;5146122;27;20584;-60
2023/06/06 09:00:46;;;;;;;2.65;1.13;;;;;;;24.89;24.59;100687.50;5148451;27;20224;-61
2023/06/06 09:03:14;;;;;;;4.10;1.45;;;;;;;24.86;24.49;100692.09;5146069;27;20198;-61
2023/06/06 09:05:43;;;;;;;1.73;1.30;;;;;;;24.80;25.07;100680.13;5148783;27;20230;-61
2023/06/06 09:08:11;;;;;;;3.22;1.25;;;;;;;24.85;25.01;100685.97;5144051;27;20203;-59
2023/06/06 09:10:39;;;;;;;1.30;1.20;;;;;;;24.81;24.50;100676.53;5146144;27;20224;-60
2023/06/06 09:13:08;;;;;;;2.88;1.25;;;;;;;24.88;24.85;100685.78;5145674;27;20199;-60
2023/06/06 09:15:38;;;;;;;3.80;1.50;;;;;;;24.92;24.99;100687.28;5145674;27;20612;-62
2023/06/06 09:18:06;;;;;;;2.88;1.45;;;;;;;25.00;24.99;100681.53;5144262;27;20317;-61
2023/06/06 09:20:35;;;;;;;2.70;1.38;;;;;;;25.06;25.14;100684.66;5136622;27;20590;-61
2023/06/06 09:23:04;;;;;;;4.00;1.40;;;;;;;25.06;24.43;100679.38;5145709;27;20259;-60
2023/06/06 09:25:32;;;;;;;1.52;1.15;;;;;;;25.09;24.40;100678.34;5144565;27;20279;-61
2023/06/06 09:28:01;;;;;;;4.35;1.13;;;;;;;25.12;24.59;100678.19;5142410;27;20210;-61
2023/06/06 09:30:30;;;;;;;3.90;1.50;;;;;;;25.16;24.86;100678.84;5146787;27;20195;-61
2023/06/06 09:33:04;;;;;;;1.42;1.27;;;;;;;25.21;24.68;100669.69;5145813;27;20226;-61
2023/06/06 09:35:33;;;;;;;2.47;1.50;;;;;;;25.29;24.71;100669.22;5139169;27;20548;-61
2023/06/06 09:38:06;;;;;;;1.63;1.42;;;;;;;25.26;24.72;100665.00;5131462;27;20198;-60
2023/06/06 09:40:43;;;;;;;2.15;1.42;;;;;;;25.29;24.59;100662.13;5132659;27;20237;-61
2023/06/06 09:43:11;;;;;;;2.05;1.45;;;;;;;25.34;24.65;100659.22;5128775;27;20222;-61
2023/06/06 09:45:49;;;;;;;1.70;1.60;;;;;;;25.37;24.85;100660.81;5129592;27;20736;-60
2023/06/06 09:48:23;;;;;;;2.80;1.45;;;;;;;25.46;24.96;100663.72;5126887;27;20203;-61
2023/06/06 09:50:51;;;;;;;3.53;1.45;;;;;;;25.51;24.43;100668.69;5129859;27;20207;-61
2023/06/06 09:53:19;;;;;;;5.50;1.83;;;;;;;25.56;24.66;100660.50;5131724;27;20284;-61
2023/06/06 09:55:48;;;;;;;2.50;1.30;;;;;;;25.61;24.39;100653.13;5130083;27;20234;-60
2023/06/06 09:58:17;;;;;;;1.30;1.20;;;;;;;25.67;24.62;100652.75;5128963;27;20256;-61
2023/06/06 10:00:46;;;;;;;2.65;2.00;;;;;;;25.70;24.15;100649.88;5130798;27;20721;-61
2023/06/06 10:03:18;;;;;;;3.67;1.50;;;;;;;25.77;24.36;100653.81;5132426;27;20199;-62
2023/06/06 10:05:49;;;;;;;1.70;1.52;;;;;;;25.94;24.55;100644.81;5130462;27;20260;-60
2023/06/06 10:08:19;;;;;;;3.03;1.77;;;;;;;26.10;24.26;100640.19;5131357;27;20290;-62
2023/06/06 10:10:49;;;;;;;2.40;1.38;;;;;;;26.12;23.45;100648.03;5132689;27;20643;-61
2023/06/06 10:13:20;;;;;;;2.35;1.40;;;;;;;26.16;23.91;100646.88;5128868;27;20657;-62
2023/06/06 10:15:49;;;;;;;1.83;1.40;;;;;;;26.55;23.50;100634.56;5134101;27;20290;-61
2023/06/06 10:18:17;;;;;;;2.97;1.33;;;;;;;27.27;22.71;100633.03;5127337;27;20200;-62
2023/06/06 10:20:46;;;;;;;2.42;1.15;;;;;;;28.04;21.64;100630.91;5130061;27;20268;-61
2023/06/06 10:23:16;;;;;;;1.88;1.52;;;;;;;28.54;21.05;100633.34;5130407;27;20211;-61
2023/06/06 10:25:45;;;;;;;3.97;1.45;;;;;;;28.94;20.62;100630.19;5118219;27;20246;-60
2023/06/06 10:28:18;;;;;;;2.72;1.35;;;;;;;29.11;20.16;100630.56;5127002;27;20192;-60
2023/06/06 10:30:57;;;;;;;2.35;1.45;;;;;;;28.99;20.32;100630.72;5134271;27;20526;-61
2023/06/06 10:33:32;;;;;;;1.92;1.65;;;;;;;28.67;20.60;100625.25;5132112;27;20199;-60
2023/06/06 10:36:04;;;;;;;3.70;1.45;;;;;;;28.52;20.85;100617.53;5132133;27;20194;-61
2023/06/06 10:38:34;;;;;;;2.80;1.38;;;;;;;28.99;20.52;100625.41;5128452;27;20280;-59
2023/06/06 10:41:14;;;;;;;3.75;1.50;;;;;;;29.67;20.00;100616.34;5127852;27;20207;-59
2023/06/06 10:43:54;;;;;;;1.60;1.50;;;;;;;30.83;19.02;100612.78;5128974;27;20213;-61
2023/06/06 10:46:23;;;;;;;1.50;1.40;;;;;;;32.15;18.37;100605.22;5132120;27;20304;-60
2023/06/06 10:48:58;;;;;;;1.92;1.48;;;;;;;33.45;16.92;100605.22;5127574;27;20210;-64
2023/06/06 10:51:32;;;;;;;5.43;1.50;;;;;;;34.46;15.82;100603.00;5127635;27;20200;-63
2023/06/06 10:54:19;;;;;;;1.83;1.38;;;;;;;35.41;14.53;100610.94;5128370;27;20291;-61
2023/06/06 10:56:48;;;;;;;4.35;1.60;;;;;;;36.15;14.47;100598.41;5116777;27;20203;-59
2023/06/06 10:59:17;;;;;;;3.38;1.58;;;;;;;36.49;13.56;100593.66;5130466;27;20692;-58
2023/06/06 11:01:45;;;;;;;3.13;1.50;;;;;;;36.65;13.36;100594.63;5133397;27;20636;-60
2023/06/06 11:04:21;;;;;;;1.73;1.40;;;;;;;35.53;13.82;100602.47;5131120;27;20558;-60
2023/06/06 11:06:51;;;;;;;2.30;1.60;;;;;;;33.86;14.64;100592.25;5130587;27;20210;-59
2023/06/06 11:09:22;;;;;;;1.55;1.10;;;;;;;32.10;16.04;100602.13;5130954;27;20577;-61
2023/06/06 11:11:52;;;;;;;3.50;1.50;;;;;;;30.84;17.63;100601.16;5132938;27;20556;-60
2023/06/06 11:14:22;;;;;;;1.40;1.30;;;;;;;30.60;18.14;100596.97;5131118;27;20203;-61
2023/06/06 11:17:11;;;;;;;3.58;1.45;;;;;;;31.61;17.84;100593.31;5130441;27;20290;-60
2023/06/06 11:19:43;;;;;;;2.50;1.52;;;;;;;32.71;16.75;100593.69;5129256;27;20207;-60
2023/06/06 11:22:21;;;;;;;2.90;1.23;;;;;;;33.61;15.69;100589.34;5131297;27;20554;-60
2023/06/06 11:24:56;;;;;;;5.82;1.63;;;;;;;34.18;15.09;100590.84;5129845;27;20230;-61
2023/06/06 11:27:27;;;;;;;2.70;1.38;;;;;;;34.19;14.83;100587.16;5120328;27;20281;-60
2023/06/06 11:29:56;;;;;;;2.75;1.42;;;;;;;34.06;14.97;100591.09;5129135;27;20719;-62
2023/06/06 11:32:25;;;;;;;2.25;1.50;;;;;;;34.11;14.67;100580.75;5131836;27;20207;-61
2023/06/06 11:34:57;;;;;;;1.80;1.50;;;;;;;33.82;15.04;100581.00;5125660;27;20677;-60